Time;durP1;ratioP1;P1;durP2;ratioP2;P2;SDS_P1;SDS_P2;PMS_P1;PMS_P2;Temp;Humidity;BMP_temperature;BMP_pressure;BME280_temperature;BME280_humidity;BME280_pressure;Samples;Min_cycle;Max_cycle;Signal;HPM_P1;HPM_P2
2022/12/26 00:00:31;;;;;;;25.20;5.30;;;;;;;;;;6179843;23;20163;-92
2022/12/26 00:03:39;;;;;;;49.57;7.03;;;;;;;;;;6181211;23;20151;-91
2022/12/26 00:06:46;;;;;;;51.53;9.00;;;;;;;;;;6180865;23;20163;-92
2022/12/26 00:09:51;;;;;;;86.13;8.40;;;;;;;;;;6181628;23;20222;-93
2022/12/26 00:12:57;;;;;;;44.90;6.90;;;;;;;;;;6181602;23;20229;-91
2022/12/26 00:16:06;;;;;;;74.43;8.17;;;;;;;;;;6178977;23;20163;-92
2022/12/26 00:19:11;;;;;;;64.80;7.57;;;;;;;;;;6180806;23;20156;-89
2022/12/26 00:22:18;;;;;;;52.93;7.30;;;;;;;;;;6180217;23;20207;-91
2022/12/26 00:25:22;;;;;;;48.07;8.53;;;;;;;;;;6179028;23;20167;-92
2022/12/26 00:28:28;;;;;;;37.73;6.40;;;;;;;;;;6180270;23;20215;-91
2022/12/26 00:31:34;;;;;;;48.60;6.60;;;;;;;;;;6179240;23;20191;-91
2022/12/26 00:34:42;;;;;;;36.50;6.07;;;;;;;;;;6179365;23;20168;-91
2022/12/26 00:37:49;;;;;;;37.77;5.73;;;;;;;;;;6179946;23;20171;-94
2022/12/26 00:40:54;;;;;;;64.10;6.67;;;;;;;;;;6182449;23;20164;-92
2022/12/26 00:43:59;;;;;;;58.13;8.33;;;;;;;;;;6182458;23;20168;-91
2022/12/26 00:47:04;;;;;;;57.10;6.63;;;;;;;;;;6180617;23;20187;-91
2022/12/26 00:50:10;;;;;;;61.80;6.50;;;;;;;;;;6180649;23;20180;-88
2022/12/26 00:53:16;;;;;;;42.30;5.60;;;;;;;;;;6182415;23;20167;-90
2022/12/26 00:56:21;;;;;;;80.53;6.63;;;;;;;;;;6182108;23;20168;-92
2022/12/26 00:59:27;;;;;;;29.53;5.60;;;;;;;;;;6181234;23;20168;-92
2022/12/26 01:06:53;;;;;;;72.63;6.30;;;;;;;;;;6200012;23;20205;-93
2022/12/26 01:09:59;;;;;;;54.37;6.73;;;;;;;;;;6180004;23;20168;-91
2022/12/26 01:13:05;;;;;;;60.83;6.63;;;;;;;;;;6179777;23;20267;-91
2022/12/26 01:16:10;;;;;;;113.63;8.23;;;;;;;;;;6180798;23;20196;-91
2022/12/26 01:19:15;;;;;;;42.93;6.03;;;;;;;;;;6182449;23;20171;-91
2022/12/26 01:22:21;;;;;;;74.20;7.20;;;;;;;;;;6181419;23;20212;-90
2022/12/26 01:25:28;;;;;;;68.67;6.87;;;;;;;;;;6182165;23;20164;-91
2022/12/26 01:28:34;;;;;;;49.73;6.30;;;;;;;;;;6182521;23;20164;-90
2022/12/26 01:31:40;;;;;;;48.60;6.97;;;;;;;;;;6181897;23;20243;-90
2022/12/26 01:34:46;;;;;;;32.23;6.13;;;;;;;;;;6182011;23;20501;-90
2022/12/26 01:37:51;;;;;;;78.70;6.77;;;;;;;;;;6182192;23;20608;-89
2022/12/26 01:44:34;;;;;;;52.50;6.97;;;;;;;;;;6184760;23;20217;-89
2022/12/26 01:47:43;;;;;;;57.23;6.50;;;;;;;;;;6181707;23;20638;-90
2022/12/26 01:50:50;;;;;;;46.67;6.20;;;;;;;;;;6181613;23;20168;-91
2022/12/26 01:53:57;;;;;;;55.60;6.33;;;;;;;;;;6181371;23;20171;-91
2022/12/26 01:57:05;;;;;;;50.87;6.27;;;;;;;;;;6181462;23;20159;-91
2022/12/26 02:00:11;;;;;;;103.90;6.87;;;;;;;;;;6182212;23;20168;-92
2022/12/26 02:06:43;;;;;;;35.83;6.37;;;;;;;;;;6179427;23;20631;-88
2022/12/26 02:09:48;;;;;;;55.17;6.60;;;;;;;;;;6178249;23;20195;-89
2022/12/26 02:12:55;;;;;;;64.97;6.27;;;;;;;;;;6178758;23;20156;-89
2022/12/26 02:16:00;;;;;;;56.70;6.90;;;;;;;;;;6180811;23;20172;-89
2022/12/26 02:19:07;;;;;;;35.83;6.43;;;;;;;;;;6181026;23;20191;-90
2022/12/26 02:22:25;;;;;;;42.93;6.53;;;;;;;;;;6181085;23;20809;-89
2022/12/26 02:25:52;;;;;;;41.47;6.83;;;;;;;;;;6178365;23;20212;-89
2022/12/26 02:29:17;;;;;;;51.63;6.10;;;;;;;;;;6181158;23;20220;-91
2022/12/26 02:32:27;;;;;;;80.00;7.10;;;;;;;;;;6179955;23;20211;-90
2022/12/26 02:35:38;;;;;;;41.97;6.00;;;;;;;;;;6180397;23;20295;-90
2022/12/26 02:38:47;;;;;;;56.87;6.70;;;;;;;;;;6180136;23;20234;-90
2022/12/26 02:41:57;;;;;;;60.03;6.80;;;;;;;;;;6179976;23;20658;-89
2022/12/26 02:48:32;;;;;;;67.23;7.13;;;;;;;;;;6181061;23;20191;-92
2022/12/26 03:19:17;;;;;;;84.03;7.10;;;;;;;;;;6180529;23;20164;-90
2022/12/26 03:22:30;;;;;;;82.17;7.53;;;;;;;;;;6181136;23;20195;-90
2022/12/26 03:32:28;;;;;;;56.10;6.97;;;;;;;;;;6182223;23;20216;-90
2022/12/26 03:35:34;;;;;;;179.77;9.77;;;;;;;;;;6181602;23;20172;-90
2022/12/26 03:38:54;;;;;;;84.30;7.07;;;;;;;;;;6180566;23;20164;-90
2022/12/26 04:19:57;;;;;;;50.00;6.10;;;;;;;;;;5997345;23;20173;-90
2022/12/26 04:46:57;;;;;;;84.90;7.83;;;;;;;;;;5996239;23;20181;-91
2022/12/26 04:50:10;;;;;;;64.43;7.33;;;;;;;;;;5995618;23;20167;-90
2022/12/26 04:53:16;;;;;;;44.30;6.57;;;;;;;;;;5979294;23;20553;-91
2022/12/26 04:56:21;;;;;;;49.63;6.97;;;;;;;;;;5979832;24;20177;-91
2022/12/26 04:59:27;;;;;;;22.80;6.43;;;;;;;;;;6010269;23;20198;-90
2022/12/26 19:24:27;;;;;;;15.13;7.82;;;;;;;;;;6208695;22;1406826;-92
2022/12/26 19:27:32;;;;;;;17.33;8.35;;;;;;;;;;6269335;22;20445;-92
2022/12/26 19:30:37;;;;;;;14.82;7.47;;;;;;;;;;6269532;22;20197;-91
2022/12/26 19:33:43;;;;;;;17.08;8.10;;;;;;;;;;6268320;22;20166;-91
2022/12/26 19:36:48;;;;;;;18.85;8.85;;;;;;;;;;6271598;22;20154;-92
2022/12/26 19:39:55;;;;;;;18.67;9.27;;;;;;;;;;6273721;22;20162;-91
2022/12/26 19:43:03;;;;;;;14.05;6.75;;;;;;;;;;6272248;22;20169;-91
2022/12/26 19:46:09;;;;;;;15.27;8.30;;;;;;;;;;6270161;22;20162;-91
2022/12/26 19:49:15;;;;;;;11.18;5.28;;;;;;;;;;6272907;22;20207;-91
2022/12/26 19:52:20;;;;;;;15.23;6.18;;;;;;;;;;6271184;22;20748;-91
2022/12/26 19:55:27;;;;;;;11.02;5.63;;;;;;;;;;6272259;22;20213;-92
2022/12/26 19:58:32;;;;;;;7.68;4.63;;;;;;;;;;6272472;22;20254;-91
2022/12/26 20:01:37;;;;;;;8.50;4.30;;;;;;;;;;6270381;22;20166;-91
2022/12/26 20:04:42;;;;;;;7.18;4.13;;;;;;;;;;6270915;22;20157;-91
2022/12/26 20:07:48;;;;;;;8.05;3.80;;;;;;;;;;6271642;22;20165;-92
2022/12/26 20:10:55;;;;;;;8.13;4.50;;;;;;;;;;6271649;22;20189;-92
2022/12/26 20:14:00;;;;;;;7.93;4.00;;;;;;;;;;6270290;22;20170;-92
2022/12/26 20:17:07;;;;;;;10.55;4.90;;;;;;;;;;6270079;22;20165;-92
2022/12/26 20:20:12;;;;;;;5.47;3.40;;;;;;;;;;6271766;22;20153;-92
2022/12/26 20:23:17;;;;;;;8.27;3.85;;;;;;;;;;6268084;22;20202;-93
2022/12/26 20:26:24;;;;;;;5.75;3.30;;;;;;;;;;6270959;22;20230;-90
2022/12/26 20:29:29;;;;;;;12.90;6.63;;;;;;;;;;6270950;22;20185;-93
2022/12/26 20:32:34;;;;;;;5.88;3.50;;;;;;;;;;6271220;22;20193;-92
2022/12/26 20:35:39;;;;;;;8.50;3.20;;;;;;;;;;6270718;22;20259;-92
2022/12/26 20:38:45;;;;;;;5.80;3.70;;;;;;;;;;6271652;22;20483;-92
2022/12/26 20:41:52;;;;;;;5.65;2.35;;;;;;;;;;6269574;22;20165;-92
2022/12/26 20:45:06;;;;;;;5.40;2.50;;;;;;;;;;6267699;22;20154;-92
2022/12/26 20:48:11;;;;;;;6.05;2.50;;;;;;;;;;6270086;22;20289;-93
2022/12/26 20:51:17;;;;;;;8.13;2.55;;;;;;;;;;6268971;22;20189;-91
2022/12/26 20:54:23;;;;;;;4.65;2.55;;;;;;;;;;6269189;22;20655;-91
2022/12/26 20:57:30;;;;;;;4.28;2.25;;;;;;;;;;6268846;22;20166;-91
2022/12/26 21:00:35;;;;;;;5.55;2.10;;;;;;;;;;6269114;22;20174;-90
2022/12/26 21:03:41;;;;;;;4.20;2.42;;;;;;;;;;6270134;22;20162;-92
2022/12/26 21:06:46;;;;;;;3.88;1.90;;;;;;;;;;6268808;22;20508;-92
2022/12/26 21:09:51;;;;;;;5.20;1.92;;;;;;;;;;6270491;22;20166;-92
2022/12/26 21:12:57;;;;;;;2.42;1.55;;;;;;;;;;6267652;22;20205;-91
2022/12/26 21:16:10;;;;;;;1.95;1.52;;;;;;;;;;6268886;22;20169;-91
2022/12/26 21:19:17;;;;;;;3.38;2.13;;;;;;;;;;6270611;22;20612;-92
2022/12/26 21:22:23;;;;;;;3.05;1.75;;;;;;;;;;6268517;22;20181;-91
2022/12/26 21:25:27;;;;;;;4.10;1.80;;;;;;;;;;6269136;22;20304;-91
2022/12/26 21:28:34;;;;;;;3.58;1.85;;;;;;;;;;6267731;22;20166;-91
2022/12/26 21:31:39;;;;;;;3.30;2.15;;;;;;;;;;6269577;22;20209;-89
2022/12/26 21:34:44;;;;;;;3.63;1.90;;;;;;;;;;6270113;22;20169;-91
2022/12/26 21:37:50;;;;;;;5.10;2.08;;;;;;;;;;6267151;22;20277;-90
2022/12/26 21:40:55;;;;;;;7.28;2.33;;;;;;;;;;6268708;22;20232;-90
2022/12/26 21:48:17;;;;;;;5.25;2.60;;;;;;;;;;6284218;22;20190;-92
2022/12/26 21:51:24;;;;;;;7.03;2.70;;;;;;;;;;6267008;22;20216;-90
2022/12/26 21:57:53;;;;;;;2.80;1.83;;;;;;;;;;6269499;22;20170;-91
2022/12/26 22:00:58;;;;;;;18.30;11.40;;;;;;;;;;6268533;22;20224;-92
2022/12/26 22:04:18;;;;;;;15.38;11.18;;;;;;;;;;6266820;22;20166;-92
2022/12/26 22:07:23;;;;;;;6.10;2.88;;;;;;;;;;6269579;22;20192;-90
2022/12/26 22:13:52;;;;;;;7.13;2.65;;;;;;;;;;6269492;22;20169;-90
2022/12/26 22:16:57;;;;;;;6.53;2.90;;;;;;;;;;6268197;22;20166;-91
2022/12/26 22:20:04;;;;;;;5.28;2.92;;;;;;;;;;6269160;22;20149;-91
2022/12/26 22:23:09;;;;;;;11.20;4.80;;;;;;;;;;6268044;22;20188;-90
2022/12/26 22:26:15;;;;;;;20.90;8.35;;;;;;;;;;6270007;22;20158;-92
2022/12/26 22:29:20;;;;;;;9.40;4.63;;;;;;;;;;6269368;22;20166;-90
2022/12/26 22:32:26;;;;;;;17.65;7.30;;;;;;;;;;6267832;22;20244;-91
2022/12/26 22:35:33;;;;;;;10.95;4.90;;;;;;;;;;6268633;22;20161;-92
2022/12/26 22:38:38;;;;;;;12.95;5.80;;;;;;;;;;6268607;22;20189;-91
2022/12/26 22:41:44;;;;;;;12.25;6.10;;;;;;;;;;6268401;22;20668;-91
2022/12/26 22:45:25;;;;;;;15.75;6.10;;;;;;;;;;6267829;22;20170;-90
2022/12/26 22:48:31;;;;;;;11.77;6.22;;;;;;;;;;6268703;22;20153;-91
2022/12/26 22:51:38;;;;;;;20.25;7.40;;;;;;;;;;6270317;22;20265;-92
2022/12/26 22:54:44;;;;;;;19.73;7.05;;;;;;;;;;6268624;22;20167;-92
2022/12/26 22:58:11;;;;;;;10.10;4.25;;;;;;;;;;6266787;22;20281;-91
2022/12/26 23:01:56;;;;;;;4.07;2.10;;;;;;;;;;6265949;22;20174;-91
2022/12/26 23:05:01;;;;;;;5.63;1.95;;;;;;;;;;6266335;22;20659;-90
2022/12/26 23:08:07;;;;;;;4.28;1.80;;;;;;;;;;6267910;22;20165;-91
2022/12/26 23:11:12;;;;;;;2.88;1.48;;;;;;;;;;6267901;22;20204;-90
2022/12/26 23:14:17;;;;;;;2.90;1.20;;;;;;;;;;6266416;22;20170;-90
2022/12/26 23:24:17;;;;;;;6.53;1.60;;;;;;;;;;6270130;22;20265;-90
2022/12/26 23:30:44;;;;;;;4.93;1.75;;;;;;;;;;6271350;22;20166;-92
2022/12/26 23:33:49;;;;;;;11.50;3.00;;;;;;;;;;6270340;22;20498;-91
2022/12/26 23:36:54;;;;;;;7.47;2.53;;;;;;;;;;6269682;22;20237;-91
2022/12/26 23:40:01;;;;;;;6.53;2.35;;;;;;;;;;6268082;22;20208;-90
2022/12/26 23:43:46;;;;;;;5.75;2.00;;;;;;;;;;6269110;22;20169;-90
2022/12/26 23:46:51;;;;;;;8.50;2.45;;;;;;;;;;6269547;22;20169;-90
2022/12/26 23:49:56;;;;;;;3.25;1.55;;;;;;;;;;6268478;22;20368;-90
2022/12/26 23:53:01;;;;;;;8.15;1.95;;;;;;;;;;6267131;22;20200;-91
2022/12/26 23:56:11;;;;;;;4.97;1.98;;;;;;;;;;6269447;22;20168;-91
2022/12/26 23:59:16;;;;;;;6.47;1.85;;;;;;;;;;6269124;22;20170;-90
